Time;durP1;ratioP1;P1;durP2;ratioP2;P2;SDS_P1;SDS_P2;PMS_P1;PMS_P2;Temp;Humidity;BMP_temperature;BMP_pressure;BME280_temperature;BME280_humidity;BME280_pressure;Samples;Min_cycle;Max_cycle;Signal;HPM_P1;HPM_P2
2022/03/17 00:00:56;;;;;;;29.70;24.23;;;;;;;;;;6189883;23;20225;-82
2022/03/17 00:03:22;;;;;;;32.67;25.20;;;;;;;;;;6163770;23;20154;-82
2022/03/17 00:05:48;;;;;;;31.33;24.53;;;;;;;;;;6189836;23;20176;-82
2022/03/17 00:08:15;;;;;;;28.87;24.47;;;;;;;;;;6163224;23;20195;-82
2022/03/17 00:10:41;;;;;;;28.77;24.30;;;;;;;;;;6189947;23;20160;-82
2022/03/17 00:13:07;;;;;;;34.93;27.07;;;;;;;;;;6164223;23;20191;-82
2022/03/17 00:15:33;;;;;;;30.27;24.67;;;;;;;;;;6190289;23;20513;-82
2022/03/17 00:17:59;;;;;;;34.27;26.80;;;;;;;;;;6191342;23;20144;-82
2022/03/17 00:20:25;;;;;;;32.20;25.50;;;;;;;;;;6165701;23;20156;-82
2022/03/17 00:22:51;;;;;;;34.23;26.03;;;;;;;;;;6192151;23;20236;-82
2022/03/17 00:25:17;;;;;;;33.83;25.70;;;;;;;;;;6191998;23;20174;-82
2022/03/17 00:27:44;;;;;;;31.57;25.53;;;;;;;;;;6165444;23;20157;-82
2022/03/17 00:30:10;;;;;;;33.53;26.37;;;;;;;;;;6192876;23;20148;-82
2022/03/17 00:32:38;;;;;;;35.57;26.77;;;;;;;;;;6192201;23;20207;-82
2022/03/17 00:37:49;;;;;;;32.37;26.30;;;;;;;;;;6191583;23;20168;-82
2022/03/17 00:40:15;;;;;;;33.57;26.10;;;;;;;;;;6192297;23;20148;-82
2022/03/17 00:42:41;;;;;;;36.30;27.57;;;;;;;;;;6165201;23;20168;-80
2022/03/17 00:45:10;;;;;;;32.07;26.43;;;;;;;;;;6190988;23;20239;-82
2022/03/17 00:47:37;;;;;;;32.50;25.97;;;;;;;;;;6191851;23;20137;-82
2022/03/17 00:50:03;;;;;;;34.80;27.17;;;;;;;;;;6192294;23;20180;-82
2022/03/17 00:52:29;;;;;;;38.07;28.77;;;;;;;;;;6165292;23;20503;-82
2022/03/17 00:54:55;;;;;;;34.83;26.87;;;;;;;;;;6191860;23;20188;-82
2022/03/17 00:57:21;;;;;;;33.67;27.20;;;;;;;;;;6191640;23;20177;-80
2022/03/17 00:59:49;;;;;;;37.13;28.67;;;;;;;;;;6165160;23;20625;-80
2022/03/17 01:02:15;;;;;;;36.23;27.83;;;;;;;;;;6192232;23;20147;-81
2022/03/17 01:04:41;;;;;;;37.80;28.33;;;;;;;;;;6165075;23;20239;-81
2022/03/17 01:07:07;;;;;;;39.13;29.40;;;;;;;;;;6165214;23;20513;-81
2022/03/17 01:09:33;;;;;;;38.80;28.87;;;;;;;;;;6192432;23;20148;-80
2022/03/17 01:11:59;;;;;;;39.37;29.33;;;;;;;;;;6191505;23;20166;-80
2022/03/17 01:14:25;;;;;;;36.57;28.37;;;;;;;;;;6191794;23;20151;-81
2022/03/17 01:16:51;;;;;;;36.97;28.60;;;;;;;;;;6191288;23;20172;-80
2022/03/17 01:19:21;;;;;;;39.80;30.47;;;;;;;;;;6192000;23;20204;-81
2022/03/17 01:21:47;;;;;;;40.43;29.83;;;;;;;;;;6191402;23;20156;-81
2022/03/17 01:24:13;;;;;;;38.27;29.27;;;;;;;;;;6167169;23;20151;-81
2022/03/17 01:26:39;;;;;;;37.47;29.57;;;;;;;;;;6192544;23;20193;-81
2022/03/17 01:29:05;;;;;;;37.57;29.13;;;;;;;;;;6193408;23;20575;-80
2022/03/17 01:31:32;;;;;;;42.03;30.30;;;;;;;;;;6195468;23;20157;-81
2022/03/17 01:33:58;;;;;;;38.67;29.30;;;;;;;;;;6166282;23;20556;-81
2022/03/17 01:36:24;;;;;;;39.03;30.17;;;;;;;;;;6193557;23;20182;-81
2022/03/17 01:38:50;;;;;;;37.53;29.10;;;;;;;;;;6193768;23;20652;-81
2022/03/17 01:41:16;;;;;;;36.43;28.53;;;;;;;;;;6191443;23;20143;-81
2022/03/17 01:43:43;;;;;;;38.00;28.47;;;;;;;;;;6165634;23;20188;-81
2022/03/17 01:46:11;;;;;;;40.17;29.40;;;;;;;;;;6191944;23;20189;-82
2022/03/17 01:48:37;;;;;;;37.53;30.07;;;;;;;;;;6194991;23;20146;-81
2022/03/17 01:51:03;;;;;;;38.13;29.97;;;;;;;;;;6166461;23;20203;-81
2022/03/17 01:53:29;;;;;;;38.33;30.33;;;;;;;;;;6191618;23;20152;-81
2022/03/17 01:55:57;;;;;;;37.67;28.90;;;;;;;;;;6191442;23;20249;-81
2022/03/17 01:58:24;;;;;;;38.77;30.03;;;;;;;;;;6191845;23;20620;-81
2022/03/17 02:00:50;;;;;;;39.60;31.00;;;;;;;;;;6192076;23;20149;-81
2022/03/17 02:03:17;;;;;;;38.23;30.03;;;;;;;;;;6192606;23;20485;-81
2022/03/17 02:05:45;;;;;;;38.70;29.77;;;;;;;;;;6165297;23;20200;-81
2022/03/17 02:08:14;;;;;;;40.57;30.30;;;;;;;;;;6191558;23;20200;-81
2022/03/17 02:13:25;;;;;;;41.77;30.87;;;;;;;;;;6191515;23;20151;-81
2022/03/17 02:15:52;;;;;;;38.73;30.23;;;;;;;;;;6191196;23;20549;-80
2022/03/17 02:18:18;;;;;;;41.70;30.37;;;;;;;;;;6192139;23;20149;-81
2022/03/17 02:20:45;;;;;;;41.00;30.53;;;;;;;;;;6165080;23;20243;-81
2022/03/17 02:25:57;;;;;;;40.97;31.00;;;;;;;;;;6191713;23;20258;-81
2022/03/17 02:28:24;;;;;;;42.43;31.73;;;;;;;;;;6191811;23;20152;-81
2022/03/17 02:30:50;;;;;;;41.50;31.43;;;;;;;;;;6190770;23;20151;-81
2022/03/17 02:33:17;;;;;;;39.80;31.57;;;;;;;;;;6191472;23;20155;-81
2022/03/17 02:35:43;;;;;;;39.70;30.73;;;;;;;;;;6191438;23;20207;-81
2022/03/17 02:38:14;;;;;;;43.90;32.30;;;;;;;;;;6191427;23;20186;-81
2022/03/17 02:40:40;;;;;;;39.27;30.13;;;;;;;;;;6191973;23;20139;-81
2022/03/17 02:43:06;;;;;;;38.67;29.53;;;;;;;;;;6165472;23;20149;-81
2022/03/17 02:45:32;;;;;;;36.73;28.33;;;;;;;;;;6191314;23;20194;-81
2022/03/17 02:47:59;;;;;;;38.87;29.57;;;;;;;;;;6191969;23;20262;-81
2022/03/17 02:50:25;;;;;;;39.67;29.93;;;;;;;;;;6191609;23;20147;-81
2022/03/17 02:52:51;;;;;;;42.43;31.13;;;;;;;;;;6191139;23;20168;-81
2022/03/17 02:55:17;;;;;;;43.87;32.33;;;;;;;;;;6189127;23;20646;-81
2022/03/17 02:57:48;;;;;;;41.63;30.83;;;;;;;;;;6189416;23;20179;-81
2022/03/17 03:00:14;;;;;;;38.80;29.80;;;;;;;;;;6189467;23;20521;-81
2022/03/17 03:02:42;;;;;;;40.87;30.60;;;;;;;;;;6162413;23;20157;-81
2022/03/17 03:05:09;;;;;;;38.20;28.77;;;;;;;;;;6189708;23;20167;-81
2022/03/17 03:07:35;;;;;;;37.67;28.80;;;;;;;;;;6191015;23;20685;-81
2022/03/17 03:10:01;;;;;;;39.53;29.53;;;;;;;;;;6190978;23;20187;-81
2022/03/17 03:12:27;;;;;;;38.83;30.73;;;;;;;;;;6189366;23;20169;-81
2022/03/17 03:14:53;;;;;;;42.70;30.77;;;;;;;;;;6190594;23;20174;-81
2022/03/17 03:17:21;;;;;;;40.93;30.33;;;;;;;;;;6163851;23;20174;-81
2022/03/17 03:19:47;;;;;;;42.77;31.67;;;;;;;;;;6164406;23;20162;-80
2022/03/17 03:22:13;;;;;;;42.53;31.67;;;;;;;;;;6191475;23;20144;-81
2022/03/17 03:24:39;;;;;;;42.93;31.90;;;;;;;;;;6191620;23;20167;-81
2022/03/17 03:27:05;;;;;;;40.93;32.67;;;;;;;;;;6190846;23;20178;-81
2022/03/17 03:29:31;;;;;;;46.03;32.77;;;;;;;;;;6165911;23;20209;-81
2022/03/17 03:31:59;;;;;;;44.50;33.13;;;;;;;;;;6193586;23;20199;-81
2022/03/17 03:34:26;;;;;;;45.80;32.70;;;;;;;;;;6192708;23;20293;-81
2022/03/17 03:39:38;;;;;;;41.23;30.33;;;;;;;;;;6192661;23;20141;-81
2022/03/17 03:42:05;;;;;;;39.50;28.63;;;;;;;;;;6193056;23;20150;-81
2022/03/17 03:44:31;;;;;;;39.13;30.03;;;;;;;;;;6192390;23;20142;-81
2022/03/17 03:46:57;;;;;;;40.63;29.63;;;;;;;;;;6166250;23;20212;-81
2022/03/17 03:49:23;;;;;;;40.40;29.97;;;;;;;;;;6191563;23;20146;-81
2022/03/17 03:51:49;;;;;;;42.43;30.83;;;;;;;;;;6192074;23;20162;-81
2022/03/17 03:54:18;;;;;;;43.97;30.43;;;;;;;;;;6191947;23;20161;-81
2022/03/17 03:56:47;;;;;;;44.47;30.40;;;;;;;;;;6165647;23;20178;-81
2022/03/17 03:59:22;;;;;;;43.03;30.17;;;;;;;;;;6192056;23;20147;-81
2022/03/17 04:01:49;;;;;;;40.80;29.63;;;;;;;;;;6166026;23;20159;-81
2022/03/17 04:04:19;;;;;;;41.27;30.07;;;;;;;;;;6191786;23;20203;-81
2022/03/17 04:06:46;;;;;;;44.00;31.20;;;;;;;;;;6193100;23;20234;-81
2022/03/17 04:09:16;;;;;;;45.10;31.07;;;;;;;;;;6191629;23;20151;-81
2022/03/17 04:11:42;;;;;;;48.27;33.63;;;;;;;;;;6165220;23;20165;-81
2022/03/17 04:14:09;;;;;;;44.00;30.60;;;;;;;;;;6192060;23;20153;-81
2022/03/17 04:16:35;;;;;;;43.13;31.30;;;;;;;;;;6190774;23;20178;-81
2022/03/17 04:19:01;;;;;;;48.67;35.07;;;;;;;;;;6192113;23;20161;-81
2022/03/17 04:21:27;;;;;;;44.43;32.30;;;;;;;;;;6191724;23;20493;-81
2022/03/17 04:23:54;;;;;;;43.33;32.33;;;;;;;;;;6165570;23;20182;-81
2022/03/17 04:26:20;;;;;;;49.37;32.77;;;;;;;;;;6191564;23;20171;-81
2022/03/17 04:28:46;;;;;;;46.10;32.53;;;;;;;;;;6191526;23;20596;-81
2022/03/17 04:31:12;;;;;;;44.40;31.70;;;;;;;;;;6191278;23;20189;-81
2022/03/17 04:33:38;;;;;;;45.33;31.97;;;;;;;;;;6191943;23;20205;-81
2022/03/17 04:36:05;;;;;;;40.97;29.53;;;;;;;;;;6191251;23;20178;-81
2022/03/17 04:38:31;;;;;;;46.83;32.93;;;;;;;;;;6191602;23;20637;-81
2022/03/17 04:40:57;;;;;;;40.17;29.50;;;;;;;;;;6164262;23;20150;-81
2022/03/17 04:43:23;;;;;;;42.87;31.07;;;;;;;;;;6190334;23;20654;-81
2022/03/17 04:45:50;;;;;;;41.77;30.33;;;;;;;;;;6164588;23;20201;-81
2022/03/17 04:48:16;;;;;;;42.50;31.03;;;;;;;;;;6192354;23;20178;-81
2022/03/17 04:50:42;;;;;;;43.33;31.27;;;;;;;;;;6191932;23;20161;-81
2022/03/17 04:53:27;;;;;;;43.70;31.43;;;;;;;;;;6192302;23;20167;-81
2022/03/17 04:55:53;;;;;;;51.20;35.23;;;;;;;;;;6191090;23;20633;-81
2022/03/17 04:58:19;;;;;;;46.10;33.80;;;;;;;;;;6190946;23;20143;-81
2022/03/17 05:00:46;;;;;;;46.67;32.47;;;;;;;;;;6163896;23;20152;-81
2022/03/17 05:03:12;;;;;;;47.33;33.27;;;;;;;;;;6164814;23;20206;-81
2022/03/17 05:05:38;;;;;;;48.60;33.33;;;;;;;;;;6193064;23;20163;-81
2022/03/17 05:08:05;;;;;;;51.23;34.90;;;;;;;;;;6193412;23;20564;-81
2022/03/17 05:10:32;;;;;;;50.80;36.00;;;;;;;;;;6194569;23;20171;-81
2022/03/17 05:12:58;;;;;;;55.77;37.77;;;;;;;;;;6167825;23;20150;-81
2022/03/17 05:15:24;;;;;;;51.97;35.57;;;;;;;;;;6165653;23;20206;-81
2022/03/17 05:17:51;;;;;;;50.23;35.73;;;;;;;;;;6193274;23;20185;-82
2022/03/17 05:20:17;;;;;;;48.90;33.23;;;;;;;;;;6192745;23;20153;-81
2022/03/17 05:22:43;;;;;;;50.47;34.20;;;;;;;;;;6166126;23;20162;-81
2022/03/17 05:25:12;;;;;;;49.37;35.43;;;;;;;;;;6192240;23;20170;-81
2022/03/17 05:27:39;;;;;;;46.30;33.37;;;;;;;;;;6192744;23;20181;-81
2022/03/17 05:30:06;;;;;;;48.90;35.63;;;;;;;;;;6192672;23;20154;-81
2022/03/17 05:32:32;;;;;;;49.20;34.57;;;;;;;;;;6192044;23;20158;-80
2022/03/17 05:34:58;;;;;;;49.60;34.93;;;;;;;;;;6164955;23;20159;-81
2022/03/17 05:37:24;;;;;;;49.10;35.67;;;;;;;;;;6191720;23;20167;-81
2022/03/17 05:39:50;;;;;;;48.60;35.23;;;;;;;;;;6192474;23;20151;-81
2022/03/17 05:42:17;;;;;;;49.67;35.10;;;;;;;;;;6165459;23;20150;-81
2022/03/17 05:44:43;;;;;;;49.43;35.53;;;;;;;;;;6165397;23;20215;-81
2022/03/17 05:47:09;;;;;;;52.60;36.13;;;;;;;;;;6165146;23;20199;-81
2022/03/17 05:49:36;;;;;;;50.80;36.43;;;;;;;;;;6161343;23;20160;-81
2022/03/17 05:52:03;;;;;;;52.30;36.60;;;;;;;;;;6193060;23;20178;-81
2022/03/17 05:54:29;;;;;;;54.17;36.93;;;;;;;;;;6192364;23;20182;-82
2022/03/17 05:56:55;;;;;;;53.57;36.00;;;;;;;;;;6191944;23;20176;-82
2022/03/17 05:59:21;;;;;;;54.07;37.90;;;;;;;;;;6192043;23;20151;-81
2022/03/17 06:01:47;;;;;;;51.40;36.73;;;;;;;;;;6191125;23;20166;-81
2022/03/17 06:04:13;;;;;;;54.00;37.80;;;;;;;;;;6191280;23;20149;-81
2022/03/17 06:06:39;;;;;;;57.10;38.33;;;;;;;;;;6165092;23;20646;-81
2022/03/17 06:09:05;;;;;;;58.47;39.60;;;;;;;;;;6191931;23;20155;-82
2022/03/17 06:11:31;;;;;;;54.33;38.80;;;;;;;;;;6194969;23;20151;-82
2022/03/17 06:13:59;;;;;;;53.60;37.67;;;;;;;;;;6168038;23;20563;-81
2022/03/17 06:16:25;;;;;;;53.37;37.40;;;;;;;;;;6192055;23;20181;-82
2022/03/17 06:18:51;;;;;;;50.97;36.63;;;;;;;;;;6191210;23;20144;-82
2022/03/17 06:21:17;;;;;;;59.20;38.30;;;;;;;;;;6164691;23;20180;-82
2022/03/17 06:23:43;;;;;;;56.10;35.73;;;;;;;;;;6192697;23;20523;-82
2022/03/17 06:26:09;;;;;;;51.67;36.77;;;;;;;;;;6192115;23;20177;-82
2022/03/17 06:28:35;;;;;;;54.00;35.87;;;;;;;;;;6165186;23;20156;-82
2022/03/17 06:31:01;;;;;;;49.83;34.23;;;;;;;;;;6164842;23;20507;-82
2022/03/17 06:33:30;;;;;;;48.10;34.33;;;;;;;;;;6193201;23;20153;-81
2022/03/17 06:35:56;;;;;;;50.07;35.70;;;;;;;;;;6166719;23;20276;-82
2022/03/17 06:38:22;;;;;;;48.67;35.50;;;;;;;;;;6166563;23;20153;-82
2022/03/17 06:40:48;;;;;;;50.43;36.57;;;;;;;;;;6196952;23;20147;-82
2022/03/17 06:43:15;;;;;;;57.87;39.97;;;;;;;;;;6195987;23;20151;-82
2022/03/17 06:45:41;;;;;;;54.73;37.80;;;;;;;;;;6195036;23;20197;-82
2022/03/17 06:48:07;;;;;;;55.93;38.20;;;;;;;;;;6194335;23;20508;-82
2022/03/17 06:50:33;;;;;;;56.87;39.97;;;;;;;;;;6194467;23;20153;-81
2022/03/17 06:53:00;;;;;;;56.60;39.90;;;;;;;;;;6167661;23;20151;-82
2022/03/17 06:55:26;;;;;;;57.33;39.97;;;;;;;;;;6168872;23;20175;-82
2022/03/17 06:57:52;;;;;;;61.10;41.83;;;;;;;;;;6194644;23;20198;-82
2022/03/17 07:00:18;;;;;;;57.40;39.93;;;;;;;;;;6168378;23;20154;-82
2022/03/17 07:02:44;;;;;;;57.50;40.07;;;;;;;;;;6195613;23;20149;-82
2022/03/17 07:05:11;;;;;;;58.93;40.80;;;;;;;;;;6195336;23;20190;-82
2022/03/17 07:07:37;;;;;;;63.17;42.77;;;;;;;;;;6195505;23;20201;-82
2022/03/17 07:10:06;;;;;;;60.87;41.67;;;;;;;;;;6195848;23;20150;-82
2022/03/17 07:12:32;;;;;;;63.10;43.97;;;;;;;;;;6194020;23;20150;-82
2022/03/17 07:14:58;;;;;;;66.63;43.30;;;;;;;;;;6169059;23;20205;-82
2022/03/17 07:17:24;;;;;;;63.20;42.80;;;;;;;;;;6196215;23;20212;-82
2022/03/17 07:22:23;;;;;;;61.43;42.83;;;;;;;;;;6195658;23;20476;-82
2022/03/17 07:24:49;;;;;;;65.33;43.47;;;;;;;;;;6195180;23;20138;-82
2022/03/17 07:27:16;;;;;;;66.67;44.60;;;;;;;;;;6195244;23;20498;-82
2022/03/17 07:29:41;;;;;;;64.10;43.43;;;;;;;;;;6195598;23;20148;-82
2022/03/17 07:32:10;;;;;;;68.43;42.93;;;;;;;;;;6143842;23;20552;-82
2022/03/17 07:34:36;;;;;;;63.37;44.17;;;;;;;;;;6195337;23;20205;-82
2022/03/17 07:37:02;;;;;;;63.33;43.93;;;;;;;;;;6195787;23;20178;-82
2022/03/17 07:39:28;;;;;;;63.83;42.30;;;;;;;;;;6196351;23;20189;-82
2022/03/17 07:41:54;;;;;;;66.83;41.83;;;;;;;;;;6196220;23;20167;-82
2022/03/17 07:44:20;;;;;;;64.80;44.40;;;;;;;;;;6195664;23;20159;-82
2022/03/17 07:46:46;;;;;;;59.27;41.60;;;;;;;;;;6170309;23;20201;-81
2022/03/17 07:49:12;;;;;;;63.17;42.57;;;;;;;;;;6168784;23;20185;-82
2022/03/17 07:51:39;;;;;;;62.33;42.87;;;;;;;;;;6196085;23;20162;-82
2022/03/17 07:54:05;;;;;;;64.73;42.47;;;;;;;;;;6172029;23;20178;-83
2022/03/17 07:56:31;;;;;;;61.77;42.60;;;;;;;;;;6198601;23;20225;-81
2022/03/17 07:58:57;;;;;;;58.20;41.77;;;;;;;;;;6199075;23;20596;-82
2022/03/17 08:01:25;;;;;;;63.63;42.70;;;;;;;;;;6171821;23;20150;-82
2022/03/17 08:03:53;;;;;;;60.20;43.37;;;;;;;;;;6172087;23;20157;-82
2022/03/17 08:06:19;;;;;;;68.93;44.90;;;;;;;;;;6199331;23;20175;-82
2022/03/17 08:08:46;;;;;;;64.20;44.87;;;;;;;;;;6197886;23;20163;-81
2022/03/17 08:11:12;;;;;;;60.83;42.97;;;;;;;;;;6197604;23;20174;-82
2022/03/17 08:13:38;;;;;;;67.07;45.03;;;;;;;;;;6197359;23;20170;-81
2022/03/17 08:16:06;;;;;;;70.07;46.93;;;;;;;;;;6197772;23;20182;-81
2022/03/17 08:18:34;;;;;;;63.67;45.17;;;;;;;;;;6199700;23;20143;-81
2022/03/17 08:21:00;;;;;;;66.67;44.77;;;;;;;;;;6172632;23;20160;-82
2022/03/17 08:23:26;;;;;;;70.97;46.83;;;;;;;;;;6196473;23;20234;-82
2022/03/17 08:25:52;;;;;;;65.43;47.00;;;;;;;;;;6196900;23;20183;-82
2022/03/17 08:28:19;;;;;;;64.90;46.63;;;;;;;;;;6196479;23;20146;-82
2022/03/17 08:30:49;;;;;;;69.43;46.10;;;;;;;;;;6171852;23;20155;-82
2022/03/17 08:33:15;;;;;;;66.17;44.47;;;;;;;;;;6196351;23;20153;-82
2022/03/17 08:35:42;;;;;;;63.27;44.90;;;;;;;;;;6169700;23;20172;-82
2022/03/17 08:38:09;;;;;;;64.43;46.40;;;;;;;;;;6199592;23;20226;-82
2022/03/17 08:40:38;;;;;;;65.07;46.03;;;;;;;;;;6174262;23;20155;-82
2022/03/17 08:43:05;;;;;;;65.57;45.13;;;;;;;;;;6179056;23;20147;-82
2022/03/17 08:51:01;;;;;;;63.63;44.80;;;;;;;;;;6206351;23;20697;-82
2022/03/17 08:53:27;;;;;;;62.83;44.33;;;;;;;;;;6206801;23;20185;-82
2022/03/17 08:55:53;;;;;;;66.60;46.97;;;;;;;;;;6180429;23;20181;-82
2022/03/17 08:58:19;;;;;;;66.47;45.77;;;;;;;;;;6206375;23;20164;-82
2022/03/17 09:00:45;;;;;;;62.67;44.63;;;;;;;;;;6205094;23;20143;-82
2022/03/17 09:03:11;;;;;;;65.50;46.57;;;;;;;;;;6179218;23;20153;-82
2022/03/17 09:05:37;;;;;;;65.17;45.60;;;;;;;;;;6205437;23;20226;-82
2022/03/17 09:08:04;;;;;;;61.83;44.50;;;;;;;;;;6205800;23;20159;-82
2022/03/17 09:10:31;;;;;;;61.30;44.40;;;;;;;;;;6206361;23;20621;-82
2022/03/17 09:13:06;;;;;;;67.13;46.37;;;;;;;;;;6206459;23;20458;-82
2022/03/17 09:15:32;;;;;;;64.00;46.43;;;;;;;;;;6206077;23;20180;-82
2022/03/17 09:17:59;;;;;;;61.87;45.33;;;;;;;;;;6180232;23;20159;-82
2022/03/17 09:20:25;;;;;;;62.07;45.10;;;;;;;;;;6206879;23;20161;-81
2022/03/17 09:22:52;;;;;;;68.10;45.47;;;;;;;;;;6206544;23;20148;-81
2022/03/17 09:25:23;;;;;;;63.77;46.40;;;;;;;;;;6206926;23;20176;-82
2022/03/17 09:27:49;;;;;;;63.63;46.07;;;;;;;;;;6206561;23;20130;-82
2022/03/17 09:30:15;;;;;;;60.93;44.90;;;;;;;;;;6180420;23;20178;-82
2022/03/17 09:32:41;;;;;;;67.13;45.50;;;;;;;;;;6206049;23;20204;-82
2022/03/17 09:35:08;;;;;;;61.60;45.20;;;;;;;;;;6206073;23;20159;-82
2022/03/17 09:37:34;;;;;;;60.77;44.43;;;;;;;;;;6205839;23;20250;-82
2022/03/17 09:40:00;;;;;;;66.43;46.73;;;;;;;;;;6179957;23;20156;-82
2022/03/17 09:42:26;;;;;;;66.93;45.73;;;;;;;;;;6180032;23;20158;-82
2022/03/17 09:44:53;;;;;;;60.43;44.60;;;;;;;;;;6205762;23;20181;-82
2022/03/17 09:47:20;;;;;;;63.33;44.83;;;;;;;;;;6204757;23;20173;-82
2022/03/17 09:49:47;;;;;;;60.83;44.30;;;;;;;;;;6205159;23;20205;-81
2022/03/17 09:52:15;;;;;;;60.93;46.37;;;;;;;;;;6204619;23;20178;-83
2022/03/17 09:54:41;;;;;;;59.03;43.53;;;;;;;;;;6205756;23;20205;-81
2022/03/17 09:57:07;;;;;;;60.83;44.87;;;;;;;;;;6179685;23;20181;-81
2022/03/17 09:59:33;;;;;;;59.17;43.03;;;;;;;;;;6204702;23;20145;-81
2022/03/17 10:02:01;;;;;;;61.63;43.53;;;;;;;;;;6205493;23;20157;-83
2022/03/17 10:04:39;;;;;;;59.47;44.03;;;;;;;;;;6178951;23;20216;-82
2022/03/17 10:07:06;;;;;;;66.70;45.60;;;;;;;;;;6206154;23;20172;-83
2022/03/17 10:09:32;;;;;;;62.77;44.17;;;;;;;;;;6181171;23;20157;-82
2022/03/17 10:12:03;;;;;;;73.30;45.50;;;;;;;;;;6180814;23;20207;-82
2022/03/17 10:14:43;;;;;;;60.87;44.50;;;;;;;;;;6205833;23;20149;-82
2022/03/17 10:17:31;;;;;;;65.07;45.13;;;;;;;;;;6205260;23;20205;-82
2022/03/17 10:20:13;;;;;;;59.13;41.93;;;;;;;;;;6206177;23;20186;-82
2022/03/17 10:23:08;;;;;;;66.73;44.30;;;;;;;;;;6180214;23;20146;-83
2022/03/17 10:25:34;;;;;;;63.83;44.17;;;;;;;;;;6160642;23;20179;-82
2022/03/17 10:28:02;;;;;;;60.30;42.43;;;;;;;;;;6206299;23;20150;-82
2022/03/17 10:30:35;;;;;;;60.80;43.67;;;;;;;;;;6206395;23;20148;-82
2022/03/17 10:33:06;;;;;;;60.10;42.43;;;;;;;;;;6206397;23;20147;-82
2022/03/17 10:35:36;;;;;;;57.37;42.87;;;;;;;;;;6205685;23;20169;-82
2022/03/17 10:38:16;;;;;;;65.03;43.37;;;;;;;;;;6206167;23;20148;-82
2022/03/17 10:40:45;;;;;;;58.60;43.33;;;;;;;;;;6205622;23;20618;-82
2022/03/17 10:43:18;;;;;;;55.47;42.10;;;;;;;;;;6206118;23;20175;-82
2022/03/17 10:45:45;;;;;;;60.10;43.20;;;;;;;;;;6205488;23;20242;-82
2022/03/17 10:48:11;;;;;;;61.03;44.57;;;;;;;;;;6205755;23;20165;-82
2022/03/17 10:50:38;;;;;;;61.07;43.93;;;;;;;;;;6179108;23;20157;-82
2022/03/17 10:53:04;;;;;;;60.17;46.17;;;;;;;;;;6204093;23;20163;-83
2022/03/17 10:55:34;;;;;;;60.27;44.60;;;;;;;;;;6204990;23;20198;-82
2022/03/17 10:58:10;;;;;;;63.10;45.37;;;;;;;;;;6178265;23;20164;-82
2022/03/17 11:00:44;;;;;;;61.50;44.60;;;;;;;;;;6205117;23;20162;-82
2022/03/17 11:03:13;;;;;;;65.40;44.67;;;;;;;;;;6203907;23;20133;-84
2022/03/17 11:05:42;;;;;;;64.90;43.47;;;;;;;;;;6179660;23;20207;-82
2022/03/17 11:08:09;;;;;;;67.73;44.60;;;;;;;;;;6205989;23;20150;-82
2022/03/17 11:10:36;;;;;;;63.10;44.03;;;;;;;;;;6205117;23;20157;-82
2022/03/17 11:13:09;;;;;;;58.57;43.27;;;;;;;;;;6204483;23;20154;-82
2022/03/17 11:15:36;;;;;;;58.60;43.00;;;;;;;;;;6178678;23;20173;-82
2022/03/17 11:18:06;;;;;;;55.17;41.53;;;;;;;;;;6204947;23;20152;-82
2022/03/17 11:20:33;;;;;;;61.50;43.83;;;;;;;;;;6204764;23;20157;-82
2022/03/17 11:23:16;;;;;;;53.13;41.13;;;;;;;;;;6179118;23;20165;-82
2022/03/17 11:25:55;;;;;;;57.87;42.60;;;;;;;;;;6204137;23;20568;-83
2022/03/17 11:28:34;;;;;;;53.90;41.97;;;;;;;;;;6204326;23;20176;-82
2022/03/17 11:31:02;;;;;;;54.63;41.77;;;;;;;;;;6204286;23;20187;-82
2022/03/17 11:33:36;;;;;;;60.30;42.93;;;;;;;;;;6203054;23;20154;-82
2022/03/17 11:36:13;;;;;;;54.53;40.43;;;;;;;;;;6179011;23;20178;-82
2022/03/17 11:39:02;;;;;;;56.80;41.23;;;;;;;;;;6204799;23;20137;-82
2022/03/17 11:41:32;;;;;;;59.60;41.80;;;;;;;;;;6178621;23;20152;-84
2022/03/17 11:43:59;;;;;;;53.30;40.37;;;;;;;;;;6203996;23;20173;-83
2022/03/17 11:46:45;;;;;;;51.53;39.63;;;;;;;;;;6204285;23;20789;-82
2022/03/17 11:49:18;;;;;;;57.10;41.03;;;;;;;;;;6205186;23;20132;-82
2022/03/17 11:51:58;;;;;;;54.60;40.33;;;;;;;;;;6178627;23;20255;-82
2022/03/17 11:54:25;;;;;;;62.77;39.70;;;;;;;;;;6204418;23;20227;-82
2022/03/17 11:56:55;;;;;;;53.83;41.20;;;;;;;;;;6203097;23;20174;-82
2022/03/17 11:59:23;;;;;;;56.93;40.13;;;;;;;;;;6202659;23;20148;-82
2022/03/17 12:01:49;;;;;;;57.00;41.53;;;;;;;;;;6202592;23;20468;-83
2022/03/17 12:04:24;;;;;;;55.27;40.57;;;;;;;;;;6202708;23;20158;-82
2022/03/17 12:07:06;;;;;;;56.70;39.83;;;;;;;;;;6204444;23;20176;-82
2022/03/17 12:09:35;;;;;;;54.37;39.97;;;;;;;;;;6203288;23;20142;-83
2022/03/17 12:12:01;;;;;;;55.87;42.07;;;;;;;;;;6177410;23;20153;-82
2022/03/17 12:14:28;;;;;;;50.63;39.40;;;;;;;;;;6203932;23;20158;-82
2022/03/17 12:17:17;;;;;;;58.53;39.10;;;;;;;;;;6177045;23;20204;-82
2022/03/17 12:19:53;;;;;;;54.83;39.37;;;;;;;;;;6203911;23;20156;-82
2022/03/17 12:22:20;;;;;;;52.43;39.03;;;;;;;;;;6205076;23;20134;-82
2022/03/17 12:24:46;;;;;;;51.53;39.30;;;;;;;;;;6203390;23;20143;-82
2022/03/17 12:27:13;;;;;;;53.33;39.77;;;;;;;;;;6204047;23;20181;-82
2022/03/17 12:29:40;;;;;;;51.87;38.80;;;;;;;;;;6204844;23;20584;-81
2022/03/17 12:32:11;;;;;;;52.00;37.97;;;;;;;;;;6207325;23;20177;-81
2022/03/17 12:34:38;;;;;;;50.57;38.30;;;;;;;;;;6207674;23;20170;-81
2022/03/17 12:37:04;;;;;;;47.57;36.73;;;;;;;;;;6181296;23;20689;-81
2022/03/17 12:39:31;;;;;;;51.47;35.63;;;;;;;;;;6179693;23;20173;-82
2022/03/17 12:41:58;;;;;;;50.20;35.90;;;;;;;;;;6178764;23;20162;-82
2022/03/17 12:44:27;;;;;;;43.47;34.27;;;;;;;;;;6204362;23;20147;-82
2022/03/17 12:46:54;;;;;;;41.77;34.77;;;;;;;;;;6177383;23;20528;-82
2022/03/17 12:49:21;;;;;;;44.23;34.83;;;;;;;;;;6203682;23;20150;-82
2022/03/17 12:51:49;;;;;;;48.57;36.90;;;;;;;;;;6176128;23;20164;-82
2022/03/17 12:54:15;;;;;;;45.83;35.33;;;;;;;;;;6202471;23;20154;-82
2022/03/17 12:56:48;;;;;;;47.47;35.67;;;;;;;;;;6203527;23;20182;-82
2022/03/17 12:59:14;;;;;;;48.47;36.77;;;;;;;;;;6203823;23;20154;-81
2022/03/17 13:01:41;;;;;;;49.63;37.53;;;;;;;;;;6205258;23;20195;-82
2022/03/17 13:04:07;;;;;;;43.93;35.37;;;;;;;;;;6183051;23;20197;-82
2022/03/17 13:09:20;;;;;;;46.40;35.93;;;;;;;;;;6207562;23;20198;-82
2022/03/17 13:14:52;;;;;;;46.67;35.47;;;;;;;;;;6200700;23;20150;-82
2022/03/17 13:17:40;;;;;;;47.33;36.47;;;;;;;;;;6201225;23;20189;-82
2022/03/17 13:20:08;;;;;;;47.03;36.40;;;;;;;;;;6175458;23;20207;-83
2022/03/17 13:22:39;;;;;;;42.70;34.77;;;;;;;;;;6200122;23;20166;-83
2022/03/17 13:25:08;;;;;;;48.43;35.37;;;;;;;;;;6202419;23;20130;-83
2022/03/17 13:27:35;;;;;;;47.37;35.23;;;;;;;;;;6203440;23;20177;-83
2022/03/17 13:30:05;;;;;;;45.57;37.00;;;;;;;;;;6203421;23;20166;-83
2022/03/17 13:32:31;;;;;;;43.97;35.43;;;;;;;;;;6203057;23;20178;-82
2022/03/17 13:34:58;;;;;;;47.87;35.33;;;;;;;;;;6176544;23;20161;-82
2022/03/17 13:37:33;;;;;;;45.40;35.30;;;;;;;;;;6175871;23;20186;-82
2022/03/17 13:40:20;;;;;;;43.93;34.37;;;;;;;;;;6203592;23;20137;-82
2022/03/17 13:43:05;;;;;;;44.80;34.00;;;;;;;;;;6201289;23;20135;-82
2022/03/17 13:45:35;;;;;;;46.17;33.10;;;;;;;;;;6200733;23;20201;-82
2022/03/17 13:48:03;;;;;;;40.37;32.63;;;;;;;;;;6201500;23;20139;-83
2022/03/17 13:50:30;;;;;;;47.17;32.87;;;;;;;;;;6199833;23;20146;-82
2022/03/17 13:52:58;;;;;;;40.20;31.40;;;;;;;;;;6198804;23;20151;-82
2022/03/17 13:55:34;;;;;;;41.03;30.43;;;;;;;;;;6198280;23;20171;-82
2022/03/17 13:58:12;;;;;;;42.43;29.77;;;;;;;;;;6199562;23;20168;-83
2022/03/17 14:00:38;;;;;;;40.33;30.77;;;;;;;;;;6174262;23;20154;-82
2022/03/17 14:03:17;;;;;;;41.07;29.67;;;;;;;;;;6174609;23;20162;-82
2022/03/17 14:06:08;;;;;;;39.50;29.43;;;;;;;;;;6174855;23;20229;-82
2022/03/17 14:09:06;;;;;;;40.13;30.37;;;;;;;;;;6199587;23;20131;-82
2022/03/17 14:11:38;;;;;;;42.67;30.33;;;;;;;;;;6144142;23;20214;-82
2022/03/17 14:14:06;;;;;;;44.60;30.70;;;;;;;;;;6172903;23;20162;-82
2022/03/17 14:16:33;;;;;;;37.67;30.60;;;;;;;;;;6173800;23;20182;-83
2022/03/17 14:19:02;;;;;;;40.23;28.70;;;;;;;;;;6174631;23;20239;-82
2022/03/17 14:21:29;;;;;;;39.93;28.47;;;;;;;;;;6174651;23;20618;-82
2022/03/17 14:24:11;;;;;;;38.57;27.27;;;;;;;;;;6202263;23;20150;-83
2022/03/17 14:26:41;;;;;;;36.63;29.17;;;;;;;;;;6203498;23;20167;-83
2022/03/17 14:29:08;;;;;;;36.70;28.03;;;;;;;;;;6199892;23;20151;-84
2022/03/17 14:31:36;;;;;;;40.30;29.20;;;;;;;;;;6202619;23;20155;-83
2022/03/17 14:34:03;;;;;;;36.73;29.33;;;;;;;;;;6201714;23;20158;-82
2022/03/17 14:36:29;;;;;;;38.40;29.03;;;;;;;;;;6202290;23;20179;-83
2022/03/17 14:38:56;;;;;;;34.00;29.33;;;;;;;;;;6202610;23;20565;-83
2022/03/17 14:41:29;;;;;;;43.47;30.90;;;;;;;;;;6175878;23;20239;-83
2022/03/17 14:43:58;;;;;;;40.43;31.33;;;;;;;;;;6175645;23;20655;-83
2022/03/17 14:46:26;;;;;;;38.27;31.10;;;;;;;;;;6149430;23;1235018;-82